Data for 04/19/2014

Time Sea-Level Adjusted Pressure Absolute Pressure Temperature Relative Humidity Dew Point   
(mb) (inHg) (mb) (inHg) (C) (F) (%) (C) (F)
00:05 1017 30.03 846 24.98 2.1 35.7 40 -10.2 13.7
00:10 1017 30.03 846 24.98 1.7 35 39 -10.7 12.7
00:15 1017 30.03 846 24.98 1.9 35.3 34 -12.6 9.3
00:20 1017 30.03 846 24.98 2.3 36.1 38 -10.6 13
00:25 1017 30.03 846 24.98 1.8 35.3 42 -9.8 14.4
00:30 1017 30.03 846 24.98 1.4 34.6 42 -10.1 13.9
00:35 1017 30.03 846 24.98 1.5 34.7 46 -9 15.8
00:40 1017 30.03 846 24.98 1.1 34 45 -9.6 14.7
00:45 1017 30.03 846 24.98 1 33.9 47 -9.1 15.7
00:50 1017 30.03 846 24.98 0.7 33.3 50 -8.6 16.5
00:55 1017 30.03 846 24.98 0.1 32.2 49 -9.3 15.2
01:00 1017 30.03 846 24.98 -0 31.9 48 -9.9 14.2
01:05 1017 30.03 846 24.98 0.2 32.3 49 -9.4 15.1
01:10 1017 30.03 846 24.98 0.7 33.3 46 -9.7 14.6
01:15 1017 30.03 846 24.98 1.1 33.9 41 -10.8 12.5
01:20 1017 30.03 846 24.98 1.1 34.1 44 -9.8 14.3
01:25 1017 30.03 846 24.98 0.8 33.4 45 -9.7 14.5
01:30 1017 30.03 846 24.98 0.6 33.1 46 -9.9 14.3
01:35 1017 30.03 846 24.98 0.5 32.8 47 -9.7 14.5
01:40 1017 30.03 846 24.98 0.4 32.7 48 -9.5 14.9
01:45 1017 30.03 846 24.98 0.3 32.5 48 -9.5 14.8
01:50 1017 30.03 846 24.98 0.4 32.7 48 -9.5 14.9
01:55 1017 30.03 846 24.98 0.4 32.8 47 -9.7 14.6
02:00 1017 30.03 846 24.98 0.6 33.1 45 -10.1 13.8
02:05 1017 30.03 846 24.98 0.8 33.5 44 -10.2 13.6
02:10 1017 30.03 846 24.98 0.8 33.5 46 -9.7 14.6
02:15 1017 30.03 846 24.98 0.2 32.3 48 -9.5 14.9
02:20 1017 30.03 846 24.98 -0 31.9 48 -9.9 14.3
02:25 1017 30.03 846 24.98 0.2 32.4 45 -10.3 13.4
02:30 1017 30.03 846 24.98 0.2 32.4 48 -9.5 14.9
02:35 1017 30.03 846 24.98 0.5 32.9 44 -10.4 13.3
02:40 1017 30.03 846 24.98 0.7 33.2 46 -9.6 14.7
02:45 1017 30.03 846 24.98 0.3 32.6 44 -10.4 13.2
02:50 1017 30.03 846 24.98 0.3 32.6 47 -9.7 14.5
02:55 1017 30.03 846 24.98 0.1 32.2 48 -9.7 14.5
03:00 1017 30.03 846 24.98 -0 31.9 46 -10.2 13.7
03:05 1017 30.03 846 24.98 -0.1 31.8 46 -10.3 13.4
03:10 1017 30.03 846 24.98 0 32.1 44 -10.9 12.4
03:15 1017 30.03 846 24.98 0.7 33.3 43 -10.5 13
03:20 1017 30.03 846 24.98 0.1 32.2 47 -9.8 14.3
03:25 1017 30.03 846 24.98 -0.5 31.1 48 -10.2 13.7
03:30 1017 30.03 846 24.98 -0.3 31.4 49 -9.9 14.2
03:35 1017 30.03 846 24.98 0.1 32.1 47 -9.9 14.2
03:40 1017 30.03 846 24.98 0 32.1 47 -10.1 13.8
03:45 1017 30.03 846 24.98 -0.2 31.6 45 -10.7 12.8
03:50 1017 30.03 846 24.98 -0.3 31.5 46 -10.7 12.8
03:55 1017 30.03 846 24.98 -0.7 30.8 50 -10 14.1
04:00 1017 30.03 846 24.98 -1 30.3 48 -10.6 12.9
04:05 1017 30.03 846 24.98 -0.7 30.7 48 -10.3 13.4
04:10 1017 30.03 846 24.98 -0.9 30.4 49 -10.3 13.4
04:15 1017 30.03 846 24.98 -0.9 30.4 48 -10.5 13.1
04:20 1017 30.03 846 24.98 -0.7 30.7 47 -10.8 12.6
04:25 1017 30.03 846 24.98 -0.5 31.2 45 -11 12.3
04:30 1017 30.03 846 24.98 -0.3 31.4 45 -10.9 12.3
04:35 1017 30.03 846 24.98 -0.3 31.4 45 -11 12.2
04:40 1017 30.03 846 24.98 -0.3 31.4 45 -10.9 12.3
04:45 1017 30.03 846 24.98 -0.3 31.4 45 -11 12.2
04:50 1017 30.03 846 24.98 -0.4 31.3 45 -11 12.2
04:55 1017 30.03 846 24.98 -0.5 31 46 -10.9 12.3
05:00 1017 30.03 846 24.98 -0.6 30.9 45 -11 12.2
05:05 1017 30.03 846 24.98 -0.6 30.9 45 -11.2 11.8
05:10 1017 30.03 846 24.98 -0.4 31.3 45 -11.1 12
05:15 1017 30.03 846 24.98 -0.4 31.2 44 -11.3 11.7
05:20 1017 30.03 846 24.98 -0.5 31.2 45 -11.1 12.1
05:25 1017 30.03 846 24.98 -0.7 30.8 45 -11.1 12
05:30 1017 30.03 846 24.98 -0.8 30.6 45 -11.3 11.7
05:35 1017 30.03 846 24.98 -0.6 30.9 45 -11.1 11.9
05:40 1017 30.03 846 24.98 -0.6 30.8 45 -11 12.1
05:45 1017 30.03 846 24.98 -0.6 30.9 46 -11 12.2
05:50 1017 30.03 846 24.98 -0.5 31.1 45 -11.1 12.1
05:55 1017 30.03 846 24.98 -0.5 31 45 -10.9 12.3
06:00 1017 30.03 846 24.98 -0.8 30.6 46 -10.9 12.3
06:05 1017 30.03 846 24.98 -0.8 30.5 45 -11.3 11.7
06:10 1017 30.03 846 24.98 -0.6 30.9 44 -11.5 11.3
06:15 1017 30.03 846 24.98 -0.2 31.6 43 -11.4 11.5
06:20 1017 30.03 846 24.98 0 32 42 -11.5 11.3
06:25 1017 30.03 846 24.98 0.2 32.4 41 -11.5 11.3
06:30 1017 30.03 846 24.98 0.4 32.7 43 -10.9 12.4
06:35 1017 30.03 846 24.98 0.2 32.4 44 -10.7 12.8
06:40 1017 30.03 846 24.98 0.3 32.6 45 -10.3 13.4
06:45 1017 30.03 846 24.98 0.4 32.7 46 -10 14
06:50 1017 30.03 846 24.98 0.5 32.8 45 -10.1 13.9
06:55 1017 30.03 846 24.98 0.7 33.3 46 -9.7 14.5
07:00 1017 30.03 846 24.98 0.9 33.6 46 -9.5 14.9
07:05 1017 30.03 846 24.98 1 33.9 45 -9.7 14.5
07:10 1017 30.03 846 24.98 1.3 34.4 45 -9.5 15
07:15 1017 30.03 846 24.98 1.7 35 42 -10.1 13.9
07:20 1017 30.03 846 24.98 2.1 35.7 38 -10.8 12.5
07:25 1017 30.03 846 24.98 2.6 36.8 36 -11 12.2
07:30 1017 30.03 846 24.98 3 37.4 35 -11.1 12.1
07:35 1017 30.03 846 24.98 3.6 38.4 32 -11.6 11.1
07:40 1017 30.03 846 24.98 4.1 39.4 32 -11.4 11.6
07:45 1017 30.03 846 24.98 4.1 39.4 31 -11.7 10.9
07:50 1017 30.03 846 24.98 4.2 39.6 30 -11.9 10.5
07:55 1017 30.03 846 24.98 4.5 40.2 29 -12.1 10.3
08:00 1017 30.03 846 24.98 5.1 41.1 29 -11.8 10.8
08:05 1017 30.03 846 24.98 5.2 41.3 29 -11.4 11.4
08:10 1017 30.03 846 24.98 5.1 41.2 28 -11.9 10.6
08:15 1017 30.03 846 24.98 5.5 41.9 27 -12 10.4
08:20 1017 30.03 846 24.98 6.1 43 24 -13.1 8.5
08:25 1017 30.03 846 24.98 6.6 43.9 21 -14.1 6.7
08:30 1017 30.03 846 24.98 7.1 44.7 21 -14 6.7
08:35 1017 30.03 846 24.98 7.7 45.8 22 -13 8.6
08:40 1017 30.03 846 24.98 8.2 46.8 20 -13.4 7.9
08:45 1017 30.03 846 24.98 8 46.4 21 -13.1 8.5
08:50 1017 30.03 846 24.98 8.5 47.3 19 -14.2 6.5
08:55 1017 30.03 846 24.98 8.6 47.5 19 -13.7 7.3
09:00 1017 30.03 846 24.98 9 48.3 19 -13.6 7.5
09:05 1017 30.03 846 24.98 9.1 48.4 20 -12.8 9
09:10 1017 30.03 846 24.98 9.3 48.7 19 -13.1 8.5
09:15 1017 30.03 846 24.98 9.5 49.2 20 -12.4 9.6
09:20 1017 30.03 846 24.98 9.5 49.1 19 -12.8 8.9
09:25 1017 30.03 846 24.98 9.8 49.6 19 -12.5 9.5
09:30 1017 30.03 846 24.98 10.4 50.8 18 -13.1 8.5
09:35 1017 30.03 846 24.98 10.4 50.7 17 -13.4 7.8
09:40 1017 30.03 846 24.98 11.1 51.9 16 -14 6.7
09:45 1017 30.03 846 24.98 11.5 52.7 16 -13.8 7.1
09:50 1017 30.03 846 24.98 11.3 52.3 17 -12.6 9.3
09:55 1017 30.03 846 24.98 11.7 53 15 -14.2 6.4
10:00 1017 30.03 846 24.98 12.3 54.2 15 -13.9 6.9
10:05 1017 30.03 846 24.98 12.6 54.7 14 -14.1 6.6
10:10 1017 30.03 846 24.98 12.2 54 14 -14.3 6.2
10:15 1017 30.03 846 24.98 12.7 54.9 15 -13.7 7.3
10:20 1017 30.03 846 24.98 12.8 55 14 -13.9 7
10:25 1017 30.03 846 24.98 13.1 55.5 14 -13.5 7.6
10:30 1017 30.03 846 24.98 13.4 56 14 -13.8 7.1
10:35 1017 30.03 846 24.98 13.1 55.5 14 -13.4 7.8
10:40 1017 30.03 846 24.98 13.2 55.8 14 -13.6 7.6
10:45 1017 30.03 846 24.98 12.7 54.8 15 -13.4 7.9
10:50 1017 30.03 846 24.98 13 55.4 15 -13.3 8.1
10:55 1017 30.03 846 24.98 14 57.1 14 -12.7 9.1
11:00 1017 30.03 846 24.98 13.9 57.1 14 -12.8 8.9
11:05 1017 30.03 846 24.98 14 57.2 14 -12.8 9
11:10 1017 30.03 846 24.98 14.5 58.1 13 -13.2 8.3
11:15 1017 30.03 846 24.98 14.1 57.4 14 -13 8.6
11:20 1017 30.03 846 24.98 13.8 56.8 14 -13.6 7.5
11:25 1017 30.03 846 24.98 14.2 57.5 14 -13 8.6
11:30 1016 30 846 24.98 14.1 57.4 14 -13.3 8.1
11:35 1016 30 846 24.98 14.5 58 14 -12.5 9.5
11:40 1016 30 845 24.95 14.4 57.8 14 -12.8 9
11:45 1016 30 845 24.95 15.3 59.5 13 -13.4 7.9
11:50 1016 30 845 24.95 14.9 58.9 13 -13.3 8.1
11:55 1016 30 845 24.95 14.9 58.9 13 -13.1 8.4
12:00 1016 30 845 24.95 15.6 60 12 -13.3 8
12:05 1016 30 845 24.95 15.7 60.2 12 -13.4 7.9
12:10 1016 30 845 24.95 15.6 60 13 -13.1 8.4
12:15 1016 30 845 24.95 15.3 59.6 13 -13.1 8.5
12:20 1016 30 845 24.95 16 60.9 12 -13.1 8.4
12:25 1016 30 845 24.95 16.4 61.6 12 -13.6 7.6
12:30 1016 30 845 24.95 16.2 61.2 10 -14.9 5.2
12:35 1016 30 845 24.95 16.2 61.1 12 -13.6 7.6
12:40 1016 30 845 24.95 16.5 61.7 11 -13.7 7.3
12:45 1016 30 845 24.95 16.2 61.2 11 -13.8 7.2
12:50 1016 30 845 24.95 16.3 61.4 12 -13.5 7.6
12:55 1016 30 845 24.95 16.4 61.4 11 -14.4 6
13:00 1016 30 845 24.95 16.6 61.8 11 -13.7 7.3
13:05 1016 30 845 24.95 17.1 62.8 11 -13.3 8
13:10 1016 30 845 24.95 17.4 63.2 10 -14.1 6.5
13:15 1016 30 845 24.95 17.2 63 11 -13.8 7.2
13:20 1015 29.97 845 24.95 17.4 63.4 10 -14.9 5.2
13:25 1015 29.97 845 24.95 17.6 63.6 10 -14.6 5.8
13:30 1015 29.97 845 24.95 17.6 63.6 10 -14.1 6.6
13:35 1015 29.97 844 24.92 17.4 63.4 10 -14 6.9
13:40 1015 29.97 844 24.92 17.2 63 10 -14.4 6.1
13:45 1015 29.97 844 24.92 17.4 63.3 10 -14.9 5.1
13:50 1015 29.97 844 24.92 17.6 63.7 10 -14.6 5.7
13:55 1015 29.97 844 24.92 18 64.3 10 -13.7 7.3
14:00 1015 29.97 844 24.92 18.2 64.7 10 -13.9 6.9
14:05 1015 29.97 844 24.92 18 64.3 10 -14 6.7
14:10 1015 29.97 844 24.92 17.6 63.7 11 -13.4 7.9
14:15 1015 29.97 844 24.92 17.7 63.9 10 -14 6.7
14:20 1015 29.97 844 24.92 17.9 64.2 10 -13.6 7.6
14:25 1015 29.97 844 24.92 18.1 64.6 10 -13.9 6.9
14:30 1015 29.97 844 24.92 18 64.3 11 -12.6 9.4
14:35 1015 29.97 844 24.92 18.1 64.6 11 -13.3 8.1
14:40 1015 29.97 844 24.92 18.4 65 10 -13.4 8
14:45 1015 29.97 844 24.92 18.3 64.9 11 -13.1 8.4
14:50 1015 29.97 844 24.92 17.6 63.7 11 -12.9 8.8
14:55 1015 29.97 844 24.92 17.4 63.4 12 -12.4 9.6
15:00 1015 29.97 844 24.92 18 64.4 11 -12.9 8.7
15:05 1014 29.94 844 24.92 17.9 64.3 12 -12.1 10.2
15:10 1014 29.94 844 24.92 18.5 65.3 11 -12.4 9.7
15:15 1014 29.94 844 24.92 18.6 65.4 10 -13 8.5
15:20 1014 29.94 844 24.92 17.5 63.4 12 -12.7 9.1
15:25 1014 29.94 844 24.92 17.2 62.9 12 -12.8 8.9
15:30 1014 29.94 843 24.89 17.6 63.6 12 -12.5 9.6
15:35 1014 29.94 843 24.89 17.8 64 12 -12.3 9.8
15:40 1014 29.94 843 24.89 17.8 64 12 -12.1 10.2
15:45 1014 29.94 843 24.89 17.9 64.2 13 -11.2 11.8
15:50 1014 29.94 843 24.89 17.7 63.8 12 -12.2 10
15:55 1014 29.94 843 24.89 17.7 63.8 12 -11.9 10.6
16:00 1014 29.94 843 24.89 17.6 63.6 12 -12.2 10
16:05 1014 29.94 843 24.89 17.5 63.5 13 -11.6 11.1
16:10 1014 29.94 843 24.89 17.4 63.3 12 -12.1 10.2
16:15 1014 29.94 843 24.89 17.4 63.2 13 -11.7 10.9
16:20 1014 29.94 843 24.89 17.3 63.1 13 -11.8 10.7
16:25 1014 29.94 843 24.89 17.1 62.8 13 -11.2 11.9
16:30 1014 29.94 843 24.89 17.3 63.1 12 -11.9 10.6
16:35 1014 29.94 843 24.89 17.6 63.8 13 -11.2 11.8
16:40 1014 29.94 843 24.89 17.6 63.8 13 -10.9 12.4
16:45 1014 29.94 843 24.89 17.4 63.3 13 -10.9 12.4
16:50 1014 29.94 843 24.89 17.5 63.4 13 -11.4 11.5
16:55 1014 29.94 843 24.89 17.4 63.2 13 -11.2 11.9
17:00 1014 29.94 843 24.89 17.4 63.4 13 -11.7 11
17:05 1014 29.94 843 24.89 17.4 63.4 13 -10.8 12.6
17:10 1014 29.94 843 24.89 17.2 62.9 14 -10.7 12.7
17:15 1014 29.94 843 24.89 17.2 63 13 -11 12.2
17:20 1014 29.94 843 24.89 17 62.7 14 -11 12.2
17:25 1014 29.94 843 24.89 17 62.6 15 -9.7 14.5
17:30 1014 29.94 843 24.89 17.1 62.8 14 -10.8 12.5
17:35 1014 29.94 843 24.89 16.8 62.3 14 -10.4 13.2
17:40 1014 29.94 843 24.89 16.7 62 14 -11.3 11.7
17:45 1014 29.94 843 24.89 16.5 61.7 14 -10.9 12.4
17:50 1014 29.94 843 24.89 16.6 61.8 15 -10.4 13.2
17:55 1014 29.94 843 24.89 16.5 61.6 15 -10.5 13.1
18:00 1014 29.94 843 24.89 16.4 61.6 14 -11.3 11.6
18:05 1014 29.94 843 24.89 16.5 61.6 15 -9.9 14.1
18:10 1014 29.94 843 24.89 16.3 61.4 15 -10.4 13.4
18:15 1014 29.94 843 24.89 16.2 61.2 16 -9.3 15.2
18:20 1014 29.94 843 24.89 16.1 61 15 -10.6 12.9
18:25 1014 29.94 843 24.89 16.1 60.9 15 -10.4 13.2
18:30 1013 29.91 843 24.89 15.9 60.6 15 -10.6 12.9
18:35 1014 29.94 843 24.89 15.8 60.4 15 -10.6 12.9
18:40 1013 29.91 843 24.89 15.7 60.2 15 -10.7 12.8
18:45 1013 29.91 843 24.89 15.4 59.7 18 -8.7 16.3
18:50 1014 29.94 843 24.89 15.1 59.2 18 -8.9 16
18:55 1014 29.94 843 24.89 14.9 58.8 18 -9.5 14.9
19:00 1014 29.94 843 24.89 14.6 58.2 18 -9.6 14.8
19:05 1014 29.94 843 24.89 15 59 17 -10.2 13.7
19:10 1014 29.94 843 24.89 15 59 15 -11.7 10.9
19:15 1014 29.94 843 24.89 15.2 59.3 15 -11.1 12
19:20 1014 29.94 843 24.89 14.8 58.7 16 -10.8 12.5
19:25 1014 29.94 843 24.89 14.5 58.1 18 -9.7 14.5
19:30 1014 29.94 843 24.89 14.4 57.8 18 -9.7 14.5
19:35 1014 29.94 843 24.89 14.3 57.7 17 -10.2 13.6
19:40 1013 29.91 843 24.89 14.2 57.5 17 -10.2 13.7
19:45 1013 29.91 843 24.89 14 57.1 18 -9.7 14.5
19:50 1013 29.91 843 24.89 13.7 56.6 19 -9.7 14.5
19:55 1013 29.91 843 24.89 13.5 56.3 19 -9.7 14.6
20:00 1014 29.94 843 24.89 13.4 56.1 19 -9.9 14.2
20:05 1014 29.94 843 24.89 13.2 55.8 19 -9.7 14.6
20:10 1014 29.94 843 24.89 12.9 55.2 20 -9.4 15.1
20:15 1014 29.94 843 24.89 12.7 54.8 21 -9.3 15.2
20:20 1014 29.94 843 24.89 12.5 54.4 21 -9.2 15.5
20:25 1014 29.94 843 24.89 12.3 54.2 21 -9.3 15.3
20:30 1014 29.94 843 24.89 12.2 53.9 21 -9.2 15.4
20:35 1014 29.94 843 24.89 12.2 54 21 -9.3 15.2
20:40 1014 29.94 843 24.89 12.3 54.1 21 -9.2 15.4
20:45 1014 29.94 843 24.89 12.2 53.9 22 -9.1 15.6
20:50 1014 29.94 843 24.89 12 53.5 23 -8.8 16.2
20:55 1014 29.94 843 24.89 11.9 53.3 23 -8.5 16.7
21:00 1014 29.94 843 24.89 12 53.5 23 -8.6 16.6
21:05 1014 29.94 843 24.89 12.2 54 21 -9.4 15
21:10 1014 29.94 843 24.89 13.6 56.4 19 -9.5 14.9
21:15 1014 29.94 843 24.89 14 57.2 20 -8.8 16.2
21:20 1013 29.91 843 24.89 13.6 56.4 20 -9.2 15.5
21:25 1013 29.91 843 24.89 13.4 56.1 20 -9.2 15.5
21:30 1014 29.94 843 24.89 12.5 54.5 23 -7.9 17.8
21:35 1013 29.91 843 24.89 12.3 54.2 22 -9 15.9
21:40 1013 29.91 843 24.89 12.7 54.8 22 -8.4 16.8
21:45 1013 29.91 843 24.89 12.5 54.5 23 -7.8 18
21:50 1013 29.91 843 24.89 12.8 55 23 -7.9 17.8
21:55 1013 29.91 843 24.89 12.9 55.1 23 -8 17.6
22:00 1013 29.91 843 24.89 12.9 55.2 22 -8.1 17.5
22:05 1013 29.91 843 24.89 12.8 55.1 23 -8 17.6
22:10 1014 29.94 843 24.89 13.1 55.6 22 -8.1 17.4
22:15 1014 29.94 843 24.89 13 55.3 23 -7.5 18.5
22:20 1014 29.94 843 24.89 12.4 54.4 24 -7.7 18.2
22:25 1014 29.94 843 24.89 12.6 54.7 23 -8.1 17.5
22:30 1014 29.94 843 24.89 12.9 55.1 23 -7.7 18.2
22:35 1014 29.94 843 24.89 12.4 54.3 25 -7 19.4
22:40 1014 29.94 843 24.89 12.2 53.9 24 -8 17.6
22:45 1014 29.94 843 24.89 12.4 54.3 25 -6.9 19.6
22:50 1014 29.94 843 24.89 12 53.7 25 -7.5 18.5
22:55 1014 29.94 843 24.89 12.1 53.8 25 -7.5 18.5
23:00 1014 29.94 843 24.89 12.4 54.2 23 -8.1 17.5
23:05 1014 29.94 843 24.89 12.6 54.6 24 -7.4 18.7
23:10 1014 29.94 843 24.89 12.2 54 25 -7.1 19.2
23:15 1014 29.94 843 24.89 12.1 53.7 24 -7.6 18.2
23:20 1014 29.94 843 24.89 12 53.6 26 -6.7 19.9
23:25 1014 29.94 843 24.89 11.8 53.3 25 -7.3 18.8
23:30 1014 29.94 843 24.89 11.9 53.3 26 -7.2 19
23:35 1014 29.94 843 24.89 11.8 53.3 26 -6.9 19.5
23:40 1014 29.94 843 24.89 11.6 52.9 27 -6.9 19.6
23:45 1014 29.94 843 24.89 11.7 53.1 24 -8 17.6
23:50 1014 29.94 843 24.89 11.9 53.5 25 -7.2 19
23:55 1014 29.94 843 24.89 11.5 52.6 26 -7.2 19.1
24:00 1014 29.94 843 24.89 11.2 52.1 28 -6.7 19.9